Turneffe Island, Belize
Current Conditions -  °F | °C
As of 6:00 PM on Thursday 25 Dec 2014 (Local Time) from MZBZ Reporting Station
Broken Clouds Broken Clouds  
Wind Chill: 72°   Ceiling: 3500
Heat Index: 72°   Visibility: 6mi
Dew Point: 68°   Wind: 5mph
Humidity: 88%   Direction: 270°W
Pressure: 30.03"   Gusts: NA
Location:  17.18°N, 87.57°W
Report Text: MZBZ 260000Z 27004KT 9999 SCT015 BKN035 22/20 A3003 Q1017 NOSIG
Loading
Personal Weather Stations






























Interactive Weather Map New forecast layout! Learn more

10-Day Weather Forecast

Advertisements
Track Severe Weather on mobile